sensor_id;sensor_type;location;lat;lon;timestamp;pressure;altitude;pressure_sealevel;temperature;humidity
51289;BME280;37372;52.294;5.152;2023-05-20T00:01:49;102580.84;;;11.17;70.95
51289;BME280;37372;52.294;5.152;2023-05-20T00:04:15;102584.16;;;11.12;71.96
51289;BME280;37372;52.294;5.152;2023-05-20T00:06:53;102586.25;;;11.10;71.67
51289;BME280;37372;52.294;5.152;2023-05-20T00:09:19;102585.31;;;11.03;72.41
51289;BME280;37372;52.294;5.152;2023-05-20T00:11:47;102596.50;;;11.02;72.63
51289;BME280;37372;52.294;5.152;2023-05-20T00:14:16;102589.75;;;11.04;72.78
51289;BME280;37372;52.294;5.152;2023-05-20T00:16:52;102593.06;;;11.00;73.43
51289;BME280;37372;52.294;5.152;2023-05-20T00:19:17;102591.38;;;10.99;73.82
51289;BME280;37372;52.294;5.152;2023-05-20T00:21:47;102584.81;;;11.00;74.30
51289;BME280;37372;52.294;5.152;2023-05-20T00:24:17;102585.31;;;11.03;73.54
51289;BME280;37372;52.294;5.152;2023-05-20T00:26:43;102596.28;;;11.03;74.27
51289;BME280;37372;52.294;5.152;2023-05-20T00:29:13;102585.13;;;11.05;73.96
51289;BME280;37372;52.294;5.152;2023-05-20T00:31:38;102587.84;;;11.05;74.08
51289;BME280;37372;52.294;5.152;2023-05-20T00:34:04;102581.53;;;11.04;74.14
51289;BME280;37372;52.294;5.152;2023-05-20T00:36:29;102584.25;;;11.04;74.05
51289;BME280;37372;52.294;5.152;2023-05-20T00:38:55;102592.22;;;10.99;74.24
51289;BME280;37372;52.294;5.152;2023-05-20T00:41:21;102582.28;;;10.98;74.61
51289;BME280;37372;52.294;5.152;2023-05-20T00:43:47;102583.13;;;10.99;74.84
51289;BME280;37372;52.294;5.152;2023-05-20T00:46:12;102587.13;;;10.96;74.75
51289;BME280;37372;52.294;5.152;2023-05-20T00:48:42;102585.50;;;10.87;75.90
51289;BME280;37372;52.294;5.152;2023-05-20T00:51:10;102579.06;;;10.80;75.75
51289;BME280;37372;52.294;5.152;2023-05-20T00:53:36;102569.53;;;10.76;75.88
51289;BME280;37372;52.294;5.152;2023-05-20T00:56:05;102570.53;;;10.75;75.22
51289;BME280;37372;52.294;5.152;2023-05-20T00:58:37;102573.19;;;10.68;76.00
51289;BME280;37372;52.294;5.152;2023-05-20T01:01:04;102565.34;;;10.65;75.85
51289;BME280;37372;52.294;5.152;2023-05-20T01:03:30;102565.06;;;10.60;76.28
51289;BME280;37372;52.294;5.152;2023-05-20T01:05:56;102562.03;;;10.55;76.37
51289;BME280;37372;52.294;5.152;2023-05-20T01:08:23;102564.59;;;10.56;76.93
51289;BME280;37372;52.294;5.152;2023-05-20T01:10:55;102560.72;;;10.51;77.13
51289;BME280;37372;52.294;5.152;2023-05-20T01:13:26;102563.91;;;10.54;76.87
51289;BME280;37372;52.294;5.152;2023-05-20T01:15:54;102556.84;;;10.45;77.50
51289;BME280;37372;52.294;5.152;2023-05-20T01:18:22;102560.22;;;10.47;77.41
51289;BME280;37372;52.294;5.152;2023-05-20T01:20:53;102553.03;;;10.46;77.54
51289;BME280;37372;52.294;5.152;2023-05-20T01:23:20;102556.19;;;10.43;78.08
51289;BME280;37372;52.294;5.152;2023-05-20T01:25:46;102550.84;;;10.42;78.36
51289;BME280;37372;52.294;5.152;2023-05-20T01:28:12;102551.69;;;10.42;77.93
51289;BME280;37372;52.294;5.152;2023-05-20T01:30:50;102549.16;;;10.41;77.41
51289;BME280;37372;52.294;5.152;2023-05-20T01:33:23;102547.81;;;10.37;77.91
51289;BME280;37372;52.294;5.152;2023-05-20T01:35:50;102539.59;;;10.37;77.70
51289;BME280;37372;52.294;5.152;2023-05-20T01:38:17;102544.22;;;10.36;77.75
51289;BME280;37372;52.294;5.152;2023-05-20T01:40:45;102536.09;;;10.28;78.02
51289;BME280;37372;52.294;5.152;2023-05-20T01:43:14;102537.31;;;10.25;79.12
51289;BME280;37372;52.294;5.152;2023-05-20T01:45:44;102540.53;;;10.29;78.26
51289;BME280;37372;52.294;5.152;2023-05-20T01:48:11;102536.75;;;10.30;78.28
51289;BME280;37372;52.294;5.152;2023-05-20T01:50:37;102536.38;;;10.33;78.86
51289;BME280;37372;52.294;5.152;2023-05-20T01:53:04;102531.75;;;10.34;79.27
51289;BME280;37372;52.294;5.152;2023-05-20T01:55:33;102530.50;;;10.36;78.67
51289;BME280;37372;52.294;5.152;2023-05-20T01:57:58;102531.09;;;10.32;78.24
51289;BME280;37372;52.294;5.152;2023-05-20T02:00:25;102527.75;;;10.36;78.37
51289;BME280;37372;52.294;5.152;2023-05-20T02:03:05;102527.75;;;10.36;78.41
51289;BME280;37372;52.294;5.152;2023-05-20T02:05:30;102523.03;;;10.30;78.44
51289;BME280;37372;52.294;5.152;2023-05-20T02:07:59;102518.97;;;10.26;79.01
51289;BME280;37372;52.294;5.152;2023-05-20T02:10:27;102519.81;;;10.26;78.80
51289;BME280;37372;52.294;5.152;2023-05-20T02:12:58;102533.75;;;10.25;78.86
51289;BME280;37372;52.294;5.152;2023-05-20T02:15:25;102531.16;;;10.23;78.71
51289;BME280;37372;52.294;5.152;2023-05-20T02:17:51;102527.56;;;10.23;78.74
51289;BME280;37372;52.294;5.152;2023-05-20T02:20:20;102532.78;;;10.33;78.53
51289;BME280;37372;52.294;5.152;2023-05-20T02:22:46;102531.94;;;10.32;77.98
51289;BME280;37372;52.294;5.152;2023-05-20T02:25:12;102526.34;;;10.25;78.20
51289;BME280;37372;52.294;5.152;2023-05-20T02:27:39;102524.75;;;10.31;78.71
51289;BME280;37372;52.294;5.152;2023-05-20T02:30:13;102528.34;;;10.32;78.39
51289;BME280;37372;52.294;5.152;2023-05-20T02:32:41;102530.91;;;10.33;79.18
51289;BME280;37372;52.294;5.152;2023-05-20T02:35:07;102535.03;;;10.29;78.36
51289;BME280;37372;52.294;5.152;2023-05-20T02:37:33;102530.41;;;10.29;78.96
51289;BME280;37372;52.294;5.152;2023-05-20T02:39:59;102529.75;;;10.27;79.24
51289;BME280;37372;52.294;5.152;2023-05-20T02:42:25;102529.25;;;10.24;79.19
51289;BME280;37372;52.294;5.152;2023-05-20T02:44:50;102521.03;;;10.24;79.49
51289;BME280;37372;52.294;5.152;2023-05-20T02:47:19;102525.19;;;10.20;79.87
51289;BME280;37372;52.294;5.152;2023-05-20T02:49:45;102522.44;;;10.20;80.32
51289;BME280;37372;52.294;5.152;2023-05-20T02:52:11;102518.00;;;10.19;79.27
51289;BME280;37372;52.294;5.152;2023-05-20T02:54:37;102515.41;;;10.17;79.97
51289;BME280;37372;52.294;5.152;2023-05-20T02:57:03;102515.72;;;10.22;79.97
51289;BME280;37372;52.294;5.152;2023-05-20T02:59:29;102516.94;;;10.20;81.24
51289;BME280;37372;52.294;5.152;2023-05-20T03:01:54;102514.56;;;10.17;80.23
51289;BME280;37372;52.294;5.152;2023-05-20T03:04:20;102507.47;;;10.22;81.13
51289;BME280;37372;52.294;5.152;2023-05-20T03:06:45;102517.16;;;10.18;80.13
51289;BME280;37372;52.294;5.152;2023-05-20T03:09:11;102514.97;;;10.14;80.13
51289;BME280;37372;52.294;5.152;2023-05-20T03:11:38;102520.06;;;10.17;79.94
51289;BME280;37372;52.294;5.152;2023-05-20T03:14:06;102515.81;;;10.14;80.48
51289;BME280;37372;52.294;5.152;2023-05-20T03:16:32;102518.06;;;10.11;80.06
51289;BME280;37372;52.294;5.152;2023-05-20T03:18:59;102519.69;;;10.20;80.46
51289;BME280;37372;52.294;5.152;2023-05-20T03:21:25;102520.44;;;10.14;80.04
51289;BME280;37372;52.294;5.152;2023-05-20T03:23:53;102524.97;;;10.07;80.72
51289;BME280;37372;52.294;5.152;2023-05-20T03:26:19;102517.78;;;10.06;81.03
51289;BME280;37372;52.294;5.152;2023-05-20T03:28:46;102518.81;;;10.04;81.37
51289;BME280;37372;52.294;5.152;2023-05-20T03:31:12;102521.09;;;10.01;81.46
51289;BME280;37372;52.294;5.152;2023-05-20T03:33:37;102519.19;;;10.01;80.94
51289;BME280;37372;52.294;5.152;2023-05-20T03:36:03;102520.03;;;10.02;81.23
51289;BME280;37372;52.294;5.152;2023-05-20T03:38:29;102519.94;;;9.95;81.77
51289;BME280;37372;52.294;5.152;2023-05-20T03:40:54;102514.25;;;9.97;81.37
51289;BME280;37372;52.294;5.152;2023-05-20T03:43:20;102518.03;;;9.96;80.88
51289;BME280;37372;52.294;5.152;2023-05-20T03:45:46;102515.69;;;9.93;82.11
51289;BME280;37372;52.294;5.152;2023-05-20T03:48:14;102513.78;;;9.93;81.26
51289;BME280;37372;52.294;5.152;2023-05-20T03:50:45;102523.06;;;9.92;81.88
51289;BME280;37372;52.294;5.152;2023-05-20T03:53:23;102522.56;;;9.89;82.00
51289;BME280;37372;52.294;5.152;2023-05-20T03:55:49;102511.78;;;9.87;82.73
51289;BME280;37372;52.294;5.152;2023-05-20T03:58:18;102516.22;;;9.88;81.97
51289;BME280;37372;52.294;5.152;2023-05-20T04:00:45;102514.16;;;9.90;82.68
51289;BME280;37372;52.294;5.152;2023-05-20T04:03:12;102512.09;;;9.92;82.64
51289;BME280;37372;52.294;5.152;2023-05-20T04:05:42;102508.50;;;9.92;82.48
51289;BME280;37372;52.294;5.152;2023-05-20T04:08:08;102511.34;;;9.98;82.54
51289;BME280;37372;52.294;5.152;2023-05-20T04:10:35;102507.19;;;10.02;82.16
51289;BME280;37372;52.294;5.152;2023-05-20T04:13:01;102510.56;;;10.04;82.57
51289;BME280;37372;52.294;5.152;2023-05-20T04:15:26;102514.66;;;10.09;83.11
51289;BME280;37372;52.294;5.152;2023-05-20T04:17:54;102512.56;;;10.11;81.96
51289;BME280;37372;52.294;5.152;2023-05-20T04:20:19;102506.25;;;10.10;82.88
51289;BME280;37372;52.294;5.152;2023-05-20T04:22:45;102509.47;;;10.14;82.24
51289;BME280;37372;52.294;5.152;2023-05-20T04:25:13;102511.56;;;10.12;81.82
51289;BME280;37372;52.294;5.152;2023-05-20T04:27:39;102512.75;;;10.09;81.55
51289;BME280;37372;52.294;5.152;2023-05-20T04:30:08;102512.97;;;10.22;80.55
51289;BME280;37372;52.294;5.152;2023-05-20T04:32:41;102519.34;;;10.23;80.59
51289;BME280;37372;52.294;5.152;2023-05-20T04:35:07;102524.06;;;10.29;80.25
51289;BME280;37372;52.294;5.152;2023-05-20T04:37:38;102513.78;;;10.31;81.27
51289;BME280;37372;52.294;5.152;2023-05-20T04:40:04;102511.31;;;10.36;80.14
51289;BME280;37372;52.294;5.152;2023-05-20T04:42:34;102520.22;;;10.38;79.87
51289;BME280;37372;52.294;5.152;2023-05-20T04:44:59;102523.63;;;10.40;80.54
51289;BME280;37372;52.294;5.152;2023-05-20T04:47:29;102525.81;;;10.45;79.93
51289;BME280;37372;52.294;5.152;2023-05-20T04:49:55;102524.75;;;10.46;80.46
51289;BME280;37372;52.294;5.152;2023-05-20T04:52:25;102522.00;;;10.46;80.02
51289;BME280;37372;52.294;5.152;2023-05-20T04:54:51;102519.81;;;10.56;79.84
51289;BME280;37372;52.294;5.152;2023-05-20T04:57:17;102522.84;;;10.61;79.96
51289;BME280;37372;52.294;5.152;2023-05-20T04:59:48;102527.88;;;10.57;79.17
51289;BME280;37372;52.294;5.152;2023-05-20T05:02:13;102527.78;;;10.66;78.65
51289;BME280;37372;52.294;5.152;2023-05-20T05:04:39;102522.94;;;10.68;79.10
51289;BME280;37372;52.294;5.152;2023-05-20T05:07:05;102516.31;;;10.77;79.23
51289;BME280;37372;52.294;5.152;2023-05-20T05:09:31;102529.94;;;10.85;78.48
51289;BME280;37372;52.294;5.152;2023-05-20T05:11:56;102516.50;;;10.90;78.53
51289;BME280;37372;52.294;5.152;2023-05-20T05:14:22;102514.22;;;10.79;78.52
51289;BME280;37372;52.294;5.152;2023-05-20T05:16:48;102505.63;;;10.82;78.63
51289;BME280;37372;52.294;5.152;2023-05-20T05:19:16;102510.25;;;10.81;77.85
51289;BME280;37372;52.294;5.152;2023-05-20T05:21:42;102513.16;;;10.95;78.30
51289;BME280;37372;52.294;5.152;2023-05-20T05:24:08;102516.84;;;11.02;77.98
51289;BME280;37372;52.294;5.152;2023-05-20T05:26:33;102511.81;;;11.05;77.85
51289;BME280;37372;52.294;5.152;2023-05-20T05:29:02;102509.34;;;11.10;78.30
51289;BME280;37372;52.294;5.152;2023-05-20T05:31:28;102501.88;;;11.26;77.92
51289;BME280;37372;52.294;5.152;2023-05-20T05:33:53;102501.97;;;11.32;78.30
51289;BME280;37372;52.294;5.152;2023-05-20T05:36:19;102502.69;;;11.62;76.70
51289;BME280;37372;52.294;5.152;2023-05-20T05:38:47;102499.81;;;11.71;75.26
51289;BME280;37372;52.294;5.152;2023-05-20T05:41:28;102503.69;;;12.04;74.86
51289;BME280;37372;52.294;5.152;2023-05-20T05:43:53;102498.72;;;12.14;73.45
51289;BME280;37372;52.294;5.152;2023-05-20T05:46:19;102499.50;;;12.08;73.09
51289;BME280;37372;52.294;5.152;2023-05-20T05:48:45;102489.38;;;11.81;73.97
51289;BME280;37372;52.294;5.152;2023-05-20T05:51:13;102495.59;;;11.96;74.66
51289;BME280;37372;52.294;5.152;2023-05-20T05:53:52;102488.88;;;11.77;74.17
51289;BME280;37372;52.294;5.152;2023-05-20T05:56:18;102492.13;;;11.81;73.89
51289;BME280;37372;52.294;5.152;2023-05-20T05:58:56;102500.16;;;11.82;74.67
51289;BME280;37372;52.294;5.152;2023-05-20T06:01:21;102495.34;;;11.91;74.09
51289;BME280;37372;52.294;5.152;2023-05-20T06:03:57;102499.41;;;11.95;74.50
51289;BME280;37372;52.294;5.152;2023-05-20T06:06:22;102499.31;;;12.10;73.33
51289;BME280;37372;52.294;5.152;2023-05-20T06:08:52;102500.50;;;12.29;73.80
51289;BME280;37372;52.294;5.152;2023-05-20T06:11:18;102497.94;;;12.27;72.35
51289;BME280;37372;52.294;5.152;2023-05-20T06:13:49;102500.09;;;12.32;72.97
51289;BME280;37372;52.294;5.152;2023-05-20T06:16:17;102504.59;;;12.39;72.38
51289;BME280;37372;52.294;5.152;2023-05-20T06:18:49;102501.28;;;12.51;71.90
51289;BME280;37372;52.294;5.152;2023-05-20T06:21:16;102498.09;;;12.54;73.08
51289;BME280;37372;52.294;5.152;2023-05-20T06:23:50;102495.69;;;12.37;71.64
51289;BME280;37372;52.294;5.152;2023-05-20T06:26:16;102500.00;;;12.53;71.81
51289;BME280;37372;52.294;5.152;2023-05-20T06:28:51;102500.66;;;12.55;72.45
51289;BME280;37372;52.294;5.152;2023-05-20T06:31:23;102494.81;;;12.71;73.58
51289;BME280;37372;52.294;5.152;2023-05-20T06:33:50;102497.19;;;12.81;71.21
51289;BME280;37372;52.294;5.152;2023-05-20T06:36:17;102502.34;;;12.97;71.02
51289;BME280;37372;52.294;5.152;2023-05-20T06:38:42;102495.75;;;12.92;71.96
51289;BME280;37372;52.294;5.152;2023-05-20T06:41:08;102491.72;;;12.94;70.58
51289;BME280;37372;52.294;5.152;2023-05-20T06:43:33;102493.53;;;12.74;71.30
51289;BME280;37372;52.294;5.152;2023-05-20T06:45:58;102490.63;;;12.76;71.25
51289;BME280;37372;52.294;5.152;2023-05-20T06:48:24;102483.03;;;12.91;70.98
51289;BME280;37372;52.294;5.152;2023-05-20T06:50:50;102486.47;;;13.06;71.69
51289;BME280;37372;52.294;5.152;2023-05-20T06:53:16;102483.06;;;13.04;71.42
51289;BME280;37372;52.294;5.152;2023-05-20T06:55:41;102488.41;;;13.12;70.08
51289;BME280;37372;52.294;5.152;2023-05-20T06:58:11;102475.31;;;13.21;71.85
51289;BME280;37372;52.294;5.152;2023-05-20T07:00:40;102472.34;;;13.22;71.15
51289;BME280;37372;52.294;5.152;2023-05-20T07:03:09;102466.63;;;13.31;69.21
51289;BME280;37372;52.294;5.152;2023-05-20T07:05:35;102472.38;;;13.36;70.09
51289;BME280;37372;52.294;5.152;2023-05-20T07:08:01;102477.25;;;13.27;70.32
51289;BME280;37372;52.294;5.152;2023-05-20T07:10:26;102476.81;;;13.37;70.59
51289;BME280;37372;52.294;5.152;2023-05-20T07:12:51;102475.38;;;13.54;71.44
51289;BME280;37372;52.294;5.152;2023-05-20T07:15:17;102471.56;;;13.62;68.34
51289;BME280;37372;52.294;5.152;2023-05-20T07:17:43;102478.34;;;13.52;68.24
51289;BME280;37372;52.294;5.152;2023-05-20T07:20:08;102477.28;;;13.53;68.74
51289;BME280;37372;52.294;5.152;2023-05-20T07:22:34;102470.94;;;13.60;67.41
51289;BME280;37372;52.294;5.152;2023-05-20T07:25:01;102476.00;;;13.69;68.13
51289;BME280;37372;52.294;5.152;2023-05-20T07:27:27;102480.28;;;13.78;68.09
51289;BME280;37372;52.294;5.152;2023-05-20T07:29:52;102462.66;;;13.86;68.74
51289;BME280;37372;52.294;5.152;2023-05-20T07:32:18;102473.91;;;13.98;66.62
51289;BME280;37372;52.294;5.152;2023-05-20T07:34:50;102474.94;;;13.90;65.29
51289;BME280;37372;52.294;5.152;2023-05-20T07:37:16;102469.63;;;14.02;66.41
51289;BME280;37372;52.294;5.152;2023-05-20T07:39:44;102464.75;;;14.11;65.74
51289;BME280;37372;52.294;5.152;2023-05-20T07:42:10;102467.50;;;14.24;65.52
51289;BME280;37372;52.294;5.152;2023-05-20T07:44:36;102468.50;;;14.29;65.91
51289;BME280;37372;52.294;5.152;2023-05-20T07:47:01;102455.97;;;14.33;66.31
51289;BME280;37372;52.294;5.152;2023-05-20T07:49:27;102458.50;;;14.42;66.96
51289;BME280;37372;52.294;5.152;2023-05-20T07:51:52;102458.09;;;14.45;65.96
51289;BME280;37372;52.294;5.152;2023-05-20T07:54:18;102448.31;;;14.49;66.00
51289;BME280;37372;52.294;5.152;2023-05-20T07:56:43;102452.06;;;14.68;64.77
51289;BME280;37372;52.294;5.152;2023-05-20T07:59:17;102448.25;;;14.69;64.77
51289;BME280;37372;52.294;5.152;2023-05-20T08:01:43;102443.97;;;14.73;63.49
51289;BME280;37372;52.294;5.152;2023-05-20T08:04:09;102446.50;;;14.74;64.03
51289;BME280;37372;52.294;5.152;2023-05-20T08:06:34;102443.53;;;14.82;64.26
51289;BME280;37372;52.294;5.152;2023-05-20T08:09:01;102440.53;;;14.84;64.89
51289;BME280;37372;52.294;5.152;2023-05-20T08:11:32;102443.53;;;14.82;64.22
51289;BME280;37372;52.294;5.152;2023-05-20T08:13:57;102439.13;;;15.06;63.95
51289;BME280;37372;52.294;5.152;2023-05-20T08:16:23;102449.81;;;14.96;61.77
51289;BME280;37372;52.294;5.152;2023-05-20T08:18:48;102453.25;;;14.92;60.45
51289;BME280;37372;52.294;5.152;2023-05-20T08:21:14;102435.41;;;14.87;61.25
51289;BME280;37372;52.294;5.152;2023-05-20T08:23:39;102436.22;;;14.95;58.83
51289;BME280;37372;52.294;5.152;2023-05-20T08:26:05;102438.72;;;15.03;59.70
51289;BME280;37372;52.294;5.152;2023-05-20T08:28:30;102428.91;;;15.13;60.06
51289;BME280;37372;52.294;5.152;2023-05-20T08:31:00;102430.75;;;15.20;59.48
51289;BME280;37372;52.294;5.152;2023-05-20T08:33:33;102427.97;;;15.20;59.88
51289;BME280;37372;52.294;5.152;2023-05-20T08:35:59;102435.78;;;15.29;58.83
51289;BME280;37372;52.294;5.152;2023-05-20T08:38:31;102432.22;;;15.54;60.47
51289;BME280;37372;52.294;5.152;2023-05-20T08:40:56;102427.47;;;15.61;58.82
51289;BME280;37372;52.294;5.152;2023-05-20T08:43:32;102423.44;;;15.57;56.83
51289;BME280;37372;52.294;5.152;2023-05-20T08:46:01;102414.47;;;15.61;55.66
51289;BME280;37372;52.294;5.152;2023-05-20T08:48:34;102426.41;;;15.62;57.32
51289;BME280;37372;52.294;5.152;2023-05-20T08:51:05;102417.81;;;15.70;58.46
51289;BME280;37372;52.294;5.152;2023-05-20T08:53:34;102406.91;;;15.50;57.73
51289;BME280;37372;52.294;5.152;2023-05-20T08:56:00;102411.72;;;15.61;59.76
51289;BME280;37372;52.294;5.152;2023-05-20T08:58:37;102411.69;;;15.68;58.52
51289;BME280;37372;52.294;5.152;2023-05-20T09:01:02;102410.09;;;15.79;56.82
51289;BME280;37372;52.294;5.152;2023-05-20T09:03:38;102406.69;;;15.77;54.59
51289;BME280;37372;52.294;5.152;2023-05-20T09:06:07;102412.03;;;15.78;56.42
51289;BME280;37372;52.294;5.152;2023-05-20T09:08:47;102403.88;;;15.83;57.16
51289;BME280;37372;52.294;5.152;2023-05-20T09:11:13;102391.38;;;15.99;56.76
51289;BME280;37372;52.294;5.152;2023-05-20T09:14:03;102396.75;;;16.12;55.49
51289;BME280;37372;52.294;5.152;2023-05-20T09:16:29;102406.28;;;16.16;56.08
51289;BME280;37372;52.294;5.152;2023-05-20T09:18:55;102398.00;;;15.98;55.52
51289;BME280;37372;52.294;5.152;2023-05-20T09:21:25;102404.22;;;16.12;55.10
51289;BME280;37372;52.294;5.152;2023-05-20T09:23:51;102391.63;;;15.97;52.96
51289;BME280;37372;52.294;5.152;2023-05-20T09:26:18;102396.84;;;16.06;51.87
51289;BME280;37372;52.294;5.152;2023-05-20T09:28:44;102384.69;;;16.07;51.58
51289;BME280;37372;52.294;5.152;2023-05-20T09:31:13;102390.00;;;16.27;51.57
51289;BME280;37372;52.294;5.152;2023-05-20T09:33:39;102383.97;;;16.48;53.92
51289;BME280;37372;52.294;5.152;2023-05-20T09:36:08;102381.59;;;16.70;50.42
51289;BME280;37372;52.294;5.152;2023-05-20T09:38:43;102380.50;;;16.71;48.40
51289;BME280;37372;52.294;5.152;2023-05-20T09:41:14;102377.41;;;16.79;48.90
51289;BME280;37372;52.294;5.152;2023-05-20T09:43:51;102373.97;;;16.95;48.58
51289;BME280;37372;52.294;5.152;2023-05-20T09:46:20;102374.78;;;17.38;52.38
51289;BME280;37372;52.294;5.152;2023-05-20T09:48:48;102356.22;;;17.26;49.72
51289;BME280;37372;52.294;5.152;2023-05-20T09:51:21;102360.25;;;17.12;49.03
51289;BME280;37372;52.294;5.152;2023-05-20T09:53:49;102353.88;;;17.12;46.99
51289;BME280;37372;52.294;5.152;2023-05-20T09:56:19;102368.00;;;17.10;47.25
51289;BME280;37372;52.294;5.152;2023-05-20T09:58:52;102366.56;;;17.31;48.30
51289;BME280;37372;52.294;5.152;2023-05-20T10:01:26;102367.44;;;17.20;46.33
51289;BME280;37372;52.294;5.152;2023-05-20T10:03:52;102362.81;;;17.25;48.60
51289;BME280;37372;52.294;5.152;2023-05-20T10:06:31;102366.78;;;17.18;49.67
51289;BME280;37372;52.294;5.152;2023-05-20T10:09:16;102360.47;;;16.99;48.46
51289;BME280;37372;52.294;5.152;2023-05-20T10:19:36;102345.91;;;17.03;47.39
51289;BME280;37372;52.294;5.152;2023-05-20T10:22:04;102341.47;;;17.26;47.09
51289;BME280;37372;52.294;5.152;2023-05-20T10:24:36;102339.84;;;17.48;47.18
51289;BME280;37372;52.294;5.152;2023-05-20T10:27:40;102346.25;;;17.72;50.01
51289;BME280;37372;52.294;5.152;2023-05-20T10:32:54;102327.94;;;17.71;46.79
51289;BME280;37372;52.294;5.152;2023-05-20T10:35:48;102327.16;;;17.88;44.66
51289;BME280;37372;52.294;5.152;2023-05-20T10:38:18;102329.22;;;17.80;43.18
51289;BME280;37372;52.294;5.152;2023-05-20T10:40:45;102326.06;;;17.89;43.92
51289;BME280;37372;52.294;5.152;2023-05-20T10:43:28;102304.13;;;18.27;45.00
51289;BME280;37372;52.294;5.152;2023-05-20T10:45:55;102322.34;;;18.35;44.97
51289;BME280;37372;52.294;5.152;2023-05-20T10:48:30;102320.69;;;18.22;45.67
51289;BME280;37372;52.294;5.152;2023-05-20T10:50:58;102300.06;;;18.18;44.00
51289;BME280;37372;52.294;5.152;2023-05-20T10:53:38;102301.94;;;17.66;46.32
51289;BME280;37372;52.294;5.152;2023-05-20T10:56:05;102296.88;;;17.27;48.25
51289;BME280;37372;52.294;5.152;2023-05-20T11:01:36;102299.44;;;17.52;46.24
51289;BME280;37372;52.294;5.152;2023-05-20T11:04:02;102296.16;;;17.67;44.52
51289;BME280;37372;52.294;5.152;2023-05-20T11:06:49;102298.13;;;18.19;46.02
51289;BME280;37372;52.294;5.152;2023-05-20T11:09:21;102289.88;;;17.83;46.18
51289;BME280;37372;52.294;5.152;2023-05-20T11:11:49;102285.75;;;18.38;48.34
51289;BME280;37372;52.294;5.152;2023-05-20T11:14:15;102291.13;;;18.16;46.16
51289;BME280;37372;52.294;5.152;2023-05-20T11:16:42;102287.56;;;18.04;46.99
51289;BME280;37372;52.294;5.152;2023-05-20T11:19:08;102290.06;;;18.05;45.54
51289;BME280;37372;52.294;5.152;2023-05-20T11:21:42;102279.13;;;18.27;42.60
51289;BME280;37372;52.294;5.152;2023-05-20T11:24:09;102273.38;;;18.46;42.87
51289;BME280;37372;52.294;5.152;2023-05-20T11:26:35;102269.75;;;18.45;42.85
51289;BME280;37372;52.294;5.152;2023-05-20T11:29:04;102282.56;;;18.46;44.01
51289;BME280;37372;52.294;5.152;2023-05-20T11:31:38;102277.22;;;18.16;43.93
51289;BME280;37372;52.294;5.152;2023-05-20T11:34:08;102261.69;;;18.44;44.63
51289;BME280;37372;52.294;5.152;2023-05-20T11:36:33;102277.50;;;18.43;44.74
51289;BME280;37372;52.294;5.152;2023-05-20T11:39:14;102270.75;;;18.67;41.98
51289;BME280;37372;52.294;5.152;2023-05-20T11:41:43;102268.84;;;18.68;42.44
51289;BME280;37372;52.294;5.152;2023-05-20T11:44:12;102270.53;;;18.57;43.82
51289;BME280;37372;52.294;5.152;2023-05-20T11:46:45;102274.91;;;18.53;46.36
51289;BME280;37372;52.294;5.152;2023-05-20T11:49:16;102270.03;;;18.60;47.13
51289;BME280;37372;52.294;5.152;2023-05-20T11:51:45;102261.94;;;18.42;45.61
51289;BME280;37372;52.294;5.152;2023-05-20T11:54:14;102256.47;;;18.76;45.43
51289;BME280;37372;52.294;5.152;2023-05-20T11:56:39;102248.59;;;19.06;45.74
51289;BME280;37372;52.294;5.152;2023-05-20T11:59:17;102248.91;;;18.59;44.85
51289;BME280;37372;52.294;5.152;2023-05-20T12:01:46;102247.91;;;18.65;45.54
51289;BME280;37372;52.294;5.152;2023-05-20T12:04:12;102252.25;;;18.45;45.86
51289;BME280;37372;52.294;5.152;2023-05-20T12:06:39;102254.16;;;18.73;45.31
51289;BME280;37372;52.294;5.152;2023-05-20T12:09:11;102244.66;;;18.40;45.04
51289;BME280;37372;52.294;5.152;2023-05-20T12:11:41;102247.22;;;18.58;45.78
51289;BME280;37372;52.294;5.152;2023-05-20T12:14:31;102248.69;;;18.78;44.96
51289;BME280;37372;52.294;5.152;2023-05-20T12:16:57;102240.88;;;18.75;44.46
51289;BME280;37372;52.294;5.152;2023-05-20T12:19:23;102242.16;;;18.55;43.86
51289;BME280;37372;52.294;5.152;2023-05-20T12:21:49;102236.47;;;18.79;45.58
51289;BME280;37372;52.294;5.152;2023-05-20T12:24:17;102226.41;;;18.44;45.33
51289;BME280;37372;52.294;5.152;2023-05-20T12:26:43;102232.44;;;18.41;45.49
51289;BME280;37372;52.294;5.152;2023-05-20T12:29:24;102224.59;;;18.38;46.77
51289;BME280;37372;52.294;5.152;2023-05-20T12:31:55;102226.97;;;18.75;45.82
51289;BME280;37372;52.294;5.152;2023-05-20T12:34:24;102232.06;;;18.49;45.84
51289;BME280;37372;52.294;5.152;2023-05-20T12:36:52;102225.66;;;18.49;46.86
51289;BME280;37372;52.294;5.152;2023-05-20T12:39:24;102226.16;;;18.62;47.51
51289;BME280;37372;52.294;5.152;2023-05-20T12:41:49;102218.16;;;18.66;47.48
51289;BME280;37372;52.294;5.152;2023-05-20T12:44:25;102217.06;;;18.22;45.69
51289;BME280;37372;52.294;5.152;2023-05-20T12:46:53;102222.34;;;18.06;47.86
51289;BME280;37372;52.294;5.152;2023-05-20T12:49:28;102216.84;;;18.40;47.89
51289;BME280;37372;52.294;5.152;2023-05-20T12:51:53;102225.81;;;18.59;48.34
51289;BME280;37372;52.294;5.152;2023-05-20T12:54:28;102231.84;;;18.39;47.33
51289;BME280;37372;52.294;5.152;2023-05-20T12:56:54;102211.31;;;18.40;46.60
51289;BME280;37372;52.294;5.152;2023-05-20T12:59:26;102217.06;;;18.50;45.12
51289;BME280;37372;52.294;5.152;2023-05-20T13:01:51;102214.13;;;18.74;46.18
51289;BME280;37372;52.294;5.152;2023-05-20T13:04:26;102220.38;;;19.14;45.62
51289;BME280;37372;52.294;5.152;2023-05-20T13:06:52;102213.31;;;18.90;45.40
51289;BME280;37372;52.294;5.152;2023-05-20T13:09:23;102209.94;;;18.71;47.24
51289;BME280;37372;52.294;5.152;2023-05-20T13:11:52;102207.50;;;18.75;44.85